Terminal Aerodrome Forecast
Issued by NWS

Home | Current Version | Previous Version | Text Only | Print | Product List | Glossary On
Versions: 1 2 3 4 5 6 7 8 9 10 11 12 13
000
FTUS46 KSTO 140500
TAFSMF
TAF
KSMF 140534Z 1406/1506 17005KT P6SM FEW250
     FM142100 18007KT P6SM BKN250
     FM150000 21013KT P6SM OVC200=

USA.gov is the U.S. government's official web portal to all federal, state and local government web resources and services.